Stippville, Kansas
Current Conditions -  °F | °C
As of 11:35 PM on Wednesday 26 Nov 2014 (Local Time) from KPTS Reporting Station
Overcast Overcast  
Wind Chill: 25°   Ceiling: 2200
Heat Index: 33°   Visibility: 10mi
Dew Point: 26°   Wind: 10mph
Humidity: 74%   Direction: 360°N
Pressure: 30.4"   Gusts: 22mph
Location:  37.1637°N, 94.898°W
Report Text: KPTS 270535Z AUTO 36009G19KT 10SM OVC022 01/M04 A3040 RMK AO2 T00061036
Loading
Personal Weather Stations






























Interactive Weather Map New forecast layout! Learn more

10-Day Weather Forecast

Advertisements
Track Severe Weather on mobile